sensor_id;sensor_type;location;lat;lon;timestamp;pressure;altitude;pressure_sealevel;temperature
19666;BMP180;9980;51.020;7.772;2023-03-08T00:01:15;95906.00;;;5.40
19666;BMP180;9980;51.020;7.772;2023-03-08T00:03:42;95926.00;;;5.40
19666;BMP180;9980;51.020;7.772;2023-03-08T00:06:14;95915.00;;;5.30
19666;BMP180;9980;51.020;7.772;2023-03-08T00:08:42;95920.00;;;5.40
19666;BMP180;9980;51.020;7.772;2023-03-08T00:11:11;95920.00;;;5.30
19666;BMP180;9980;51.020;7.772;2023-03-08T00:13:39;95916.00;;;5.30
19666;BMP180;9980;51.020;7.772;2023-03-08T00:16:10;95896.00;;;5.30
19666;BMP180;9980;51.020;7.772;2023-03-08T00:18:37;95906.00;;;5.30
19666;BMP180;9980;51.020;7.772;2023-03-08T00:21:12;95919.00;;;5.30
19666;BMP180;9980;51.020;7.772;2023-03-08T00:23:39;95899.00;;;5.30
19666;BMP180;9980;51.020;7.772;2023-03-08T00:26:07;95917.00;;;5.30
19666;BMP180;9980;51.020;7.772;2023-03-08T00:28:35;95916.00;;;5.30
19666;BMP180;9980;51.020;7.772;2023-03-08T00:31:06;95914.00;;;5.30
19666;BMP180;9980;51.020;7.772;2023-03-08T00:33:34;95918.00;;;5.30
19666;BMP180;9980;51.020;7.772;2023-03-08T00:36:03;95915.00;;;5.30
19666;BMP180;9980;51.020;7.772;2023-03-08T00:38:33;95903.00;;;5.30
19666;BMP180;9980;51.020;7.772;2023-03-08T00:41:02;95893.00;;;5.30
19666;BMP180;9980;51.020;7.772;2023-03-08T00:43:31;95892.00;;;5.30
19666;BMP180;9980;51.020;7.772;2023-03-08T00:46:02;95891.00;;;5.30
19666;BMP180;9980;51.020;7.772;2023-03-08T00:48:30;95894.00;;;5.30
19666;BMP180;9980;51.020;7.772;2023-03-08T00:50:57;95903.00;;;5.30
19666;BMP180;9980;51.020;7.772;2023-03-08T00:53:24;95896.00;;;5.30
19666;BMP180;9980;51.020;7.772;2023-03-08T00:55:54;95914.00;;;5.30
19666;BMP180;9980;51.020;7.772;2023-03-08T00:58:24;95896.00;;;5.30
19666;BMP180;9980;51.020;7.772;2023-03-08T01:00:52;95901.00;;;5.30
19666;BMP180;9980;51.020;7.772;2023-03-08T01:03:22;95907.00;;;5.30
19666;BMP180;9980;51.020;7.772;2023-03-08T01:05:55;95907.00;;;5.30
19666;BMP180;9980;51.020;7.772;2023-03-08T01:08:24;95885.00;;;5.40
19666;BMP180;9980;51.020;7.772;2023-03-08T01:10:58;95891.00;;;5.40
19666;BMP180;9980;51.020;7.772;2023-03-08T01:13:29;95892.00;;;5.30
19666;BMP180;9980;51.020;7.772;2023-03-08T01:15:57;95876.00;;;5.40
19666;BMP180;9980;51.020;7.772;2023-03-08T01:18:25;95889.00;;;5.40
19666;BMP180;9980;51.020;7.772;2023-03-08T01:21:01;95887.00;;;5.40
19666;BMP180;9980;51.020;7.772;2023-03-08T01:23:29;95868.00;;;5.40
19666;BMP180;9980;51.020;7.772;2023-03-08T01:26:03;95877.00;;;5.40
19666;BMP180;9980;51.020;7.772;2023-03-08T01:28:32;95872.00;;;5.40
19666;BMP180;9980;51.020;7.772;2023-03-08T01:31:13;95881.00;;;5.40
19666;BMP180;9980;51.020;7.772;2023-03-08T01:33:42;95864.00;;;5.40
19666;BMP180;9980;51.020;7.772;2023-03-08T01:36:13;95870.00;;;5.40
19666;BMP180;9980;51.020;7.772;2023-03-08T01:38:45;95857.00;;;5.40
19666;BMP180;9980;51.020;7.772;2023-03-08T01:41:20;95860.00;;;5.40
19666;BMP180;9980;51.020;7.772;2023-03-08T01:43:49;95847.00;;;5.40
19666;BMP180;9980;51.020;7.772;2023-03-08T01:46:32;95860.00;;;5.40
19666;BMP180;9980;51.020;7.772;2023-03-08T01:49:25;95848.00;;;5.40
19666;BMP180;9980;51.020;7.772;2023-03-08T01:52:02;95843.00;;;5.40
19666;BMP180;9980;51.020;7.772;2023-03-08T01:54:42;95838.00;;;5.40
19666;BMP180;9980;51.020;7.772;2023-03-08T01:59:52;95842.00;;;5.40
19666;BMP180;9980;51.020;7.772;2023-03-08T02:02:33;95836.00;;;5.40
19666;BMP180;9980;51.020;7.772;2023-03-08T02:05:01;95839.00;;;5.50
19666;BMP180;9980;51.020;7.772;2023-03-08T02:07:29;95840.00;;;5.50
19666;BMP180;9980;51.020;7.772;2023-03-08T02:09:56;95823.00;;;5.50
19666;BMP180;9980;51.020;7.772;2023-03-08T02:12:24;95814.00;;;5.50
19666;BMP180;9980;51.020;7.772;2023-03-08T02:14:52;95819.00;;;5.50
19666;BMP180;9980;51.020;7.772;2023-03-08T02:17:21;95837.00;;;5.50
19666;BMP180;9980;51.020;7.772;2023-03-08T02:20:22;95841.00;;;5.50
19666;BMP180;9980;51.020;7.772;2023-03-08T02:22:50;95831.00;;;5.50
19666;BMP180;9980;51.020;7.772;2023-03-08T02:25:23;95814.00;;;5.50
19666;BMP180;9980;51.020;7.772;2023-03-08T02:27:53;95803.00;;;5.50
19666;BMP180;9980;51.020;7.772;2023-03-08T02:30:30;95805.00;;;5.50
19666;BMP180;9980;51.020;7.772;2023-03-08T02:32:57;95802.00;;;5.50
19666;BMP180;9980;51.020;7.772;2023-03-08T02:35:28;95801.00;;;5.50
19666;BMP180;9980;51.020;7.772;2023-03-08T02:37:54;95797.00;;;5.50
19666;BMP180;9980;51.020;7.772;2023-03-08T02:40:23;95793.00;;;5.50
19666;BMP180;9980;51.020;7.772;2023-03-08T02:42:50;95796.00;;;5.50
19666;BMP180;9980;51.020;7.772;2023-03-08T02:45:19;95768.00;;;5.50
19666;BMP180;9980;51.020;7.772;2023-03-08T02:47:46;95781.00;;;5.50
19666;BMP180;9980;51.020;7.772;2023-03-08T02:50:13;95777.00;;;5.50
19666;BMP180;9980;51.020;7.772;2023-03-08T02:52:40;95782.00;;;5.60
19666;BMP180;9980;51.020;7.772;2023-03-08T02:55:07;95791.00;;;5.50
19666;BMP180;9980;51.020;7.772;2023-03-08T02:57:34;95789.00;;;5.60
19666;BMP180;9980;51.020;7.772;2023-03-08T03:00:04;95789.00;;;5.60
19666;BMP180;9980;51.020;7.772;2023-03-08T03:02:32;95785.00;;;5.60
19666;BMP180;9980;51.020;7.772;2023-03-08T03:05:03;95786.00;;;5.50
19666;BMP180;9980;51.020;7.772;2023-03-08T03:07:34;95791.00;;;5.50
19666;BMP180;9980;51.020;7.772;2023-03-08T03:10:03;95777.00;;;5.50
19666;BMP180;9980;51.020;7.772;2023-03-08T03:12:30;95780.00;;;5.50
19666;BMP180;9980;51.020;7.772;2023-03-08T03:14:57;95772.00;;;5.50
19666;BMP180;9980;51.020;7.772;2023-03-08T03:17:24;95778.00;;;5.50
19666;BMP180;9980;51.020;7.772;2023-03-08T03:19:51;95783.00;;;5.50
19666;BMP180;9980;51.020;7.772;2023-03-08T03:22:17;95758.00;;;5.50
19666;BMP180;9980;51.020;7.772;2023-03-08T03:24:44;95767.00;;;5.50
19666;BMP180;9980;51.020;7.772;2023-03-08T03:27:11;95761.00;;;5.50
19666;BMP180;9980;51.020;7.772;2023-03-08T03:29:38;95754.00;;;5.50
19666;BMP180;9980;51.020;7.772;2023-03-08T03:32:11;95737.00;;;5.50
19666;BMP180;9980;51.020;7.772;2023-03-08T03:34:39;95753.00;;;5.50
19666;BMP180;9980;51.020;7.772;2023-03-08T03:37:06;95755.00;;;5.50
19666;BMP180;9980;51.020;7.772;2023-03-08T03:39:37;95753.00;;;5.50
19666;BMP180;9980;51.020;7.772;2023-03-08T03:42:07;95749.00;;;5.50
19666;BMP180;9980;51.020;7.772;2023-03-08T03:44:37;95757.00;;;5.50
19666;BMP180;9980;51.020;7.772;2023-03-08T03:47:07;95739.00;;;5.50
19666;BMP180;9980;51.020;7.772;2023-03-08T03:49:34;95755.00;;;5.50
19666;BMP180;9980;51.020;7.772;2023-03-08T03:52:02;95742.00;;;5.50
19666;BMP180;9980;51.020;7.772;2023-03-08T03:54:38;95735.00;;;5.50
19666;BMP180;9980;51.020;7.772;2023-03-08T03:57:05;95743.00;;;5.50
19666;BMP180;9980;51.020;7.772;2023-03-08T03:59:36;95727.00;;;5.50
19666;BMP180;9980;51.020;7.772;2023-03-08T04:02:03;95724.00;;;5.50
19666;BMP180;9980;51.020;7.772;2023-03-08T04:04:49;95738.00;;;5.50
19666;BMP180;9980;51.020;7.772;2023-03-08T04:07:19;95739.00;;;5.50
19666;BMP180;9980;51.020;7.772;2023-03-08T04:09:54;95740.00;;;5.50
19666;BMP180;9980;51.020;7.772;2023-03-08T04:12:21;95736.00;;;5.50
19666;BMP180;9980;51.020;7.772;2023-03-08T04:14:48;95721.00;;;5.50
19666;BMP180;9980;51.020;7.772;2023-03-08T04:17:16;95717.00;;;5.50
19666;BMP180;9980;51.020;7.772;2023-03-08T04:19:48;95720.00;;;5.50
19666;BMP180;9980;51.020;7.772;2023-03-08T04:22:17;95710.00;;;5.50
19666;BMP180;9980;51.020;7.772;2023-03-08T04:24:48;95710.00;;;5.50
19666;BMP180;9980;51.020;7.772;2023-03-08T04:27:20;95704.00;;;5.50
19666;BMP180;9980;51.020;7.772;2023-03-08T04:29:47;95701.00;;;5.50
19666;BMP180;9980;51.020;7.772;2023-03-08T04:32:15;95705.00;;;5.50
19666;BMP180;9980;51.020;7.772;2023-03-08T04:34:47;95689.00;;;5.50
19666;BMP180;9980;51.020;7.772;2023-03-08T04:37:17;95697.00;;;5.50
19666;BMP180;9980;51.020;7.772;2023-03-08T04:39:48;95681.00;;;5.50
19666;BMP180;9980;51.020;7.772;2023-03-08T04:42:16;95689.00;;;5.50
19666;BMP180;9980;51.020;7.772;2023-03-08T04:44:44;95697.00;;;5.40
19666;BMP180;9980;51.020;7.772;2023-03-08T04:47:13;95687.00;;;5.50
19666;BMP180;9980;51.020;7.772;2023-03-08T04:49:44;95676.00;;;5.40
19666;BMP180;9980;51.020;7.772;2023-03-08T04:52:12;95670.00;;;5.40
19666;BMP180;9980;51.020;7.772;2023-03-08T04:54:40;95671.00;;;5.40
19666;BMP180;9980;51.020;7.772;2023-03-08T04:57:16;95663.00;;;5.40
19666;BMP180;9980;51.020;7.772;2023-03-08T04:59:47;95671.00;;;5.40
19666;BMP180;9980;51.020;7.772;2023-03-08T05:02:14;95656.00;;;5.40
19666;BMP180;9980;51.020;7.772;2023-03-08T05:04:42;95648.00;;;5.40
19666;BMP180;9980;51.020;7.772;2023-03-08T05:07:09;95649.00;;;5.40
19666;BMP180;9980;51.020;7.772;2023-03-08T05:09:37;95629.00;;;5.40
19666;BMP180;9980;51.020;7.772;2023-03-08T05:12:04;95624.00;;;5.40
19666;BMP180;9980;51.020;7.772;2023-03-08T05:14:48;95627.00;;;5.40
19666;BMP180;9980;51.020;7.772;2023-03-08T05:17:15;95611.00;;;5.40
19666;BMP180;9980;51.020;7.772;2023-03-08T05:19:42;95619.00;;;5.40
19666;BMP180;9980;51.020;7.772;2023-03-08T05:22:11;95621.00;;;5.40
19666;BMP180;9980;51.020;7.772;2023-03-08T05:24:43;95633.00;;;5.30
19666;BMP180;9980;51.020;7.772;2023-03-08T05:27:12;95622.00;;;5.30
19666;BMP180;9980;51.020;7.772;2023-03-08T05:29:39;95646.00;;;5.30
19666;BMP180;9980;51.020;7.772;2023-03-08T05:32:10;95615.00;;;5.30
19666;BMP180;9980;51.020;7.772;2023-03-08T05:34:38;95610.00;;;5.30
19666;BMP180;9980;51.020;7.772;2023-03-08T05:37:08;95617.00;;;5.30
19666;BMP180;9980;51.020;7.772;2023-03-08T05:39:37;95605.00;;;5.30
19666;BMP180;9980;51.020;7.772;2023-03-08T05:42:24;95602.00;;;5.30
19666;BMP180;9980;51.020;7.772;2023-03-08T05:44:53;95612.00;;;5.30
19666;BMP180;9980;51.020;7.772;2023-03-08T05:47:26;95589.00;;;5.30
19666;BMP180;9980;51.020;7.772;2023-03-08T05:49:54;95593.00;;;5.30
19666;BMP180;9980;51.020;7.772;2023-03-08T05:52:22;95575.00;;;5.30
19666;BMP180;9980;51.020;7.772;2023-03-08T05:54:49;95592.00;;;5.30
19666;BMP180;9980;51.020;7.772;2023-03-08T05:57:18;95576.00;;;5.30
19666;BMP180;9980;51.020;7.772;2023-03-08T05:59:46;95572.00;;;5.30
19666;BMP180;9980;51.020;7.772;2023-03-08T06:02:16;95577.00;;;5.30
19666;BMP180;9980;51.020;7.772;2023-03-08T06:04:49;95560.00;;;5.30
19666;BMP180;9980;51.020;7.772;2023-03-08T06:07:19;95558.00;;;5.30
19666;BMP180;9980;51.020;7.772;2023-03-08T06:09:57;95559.00;;;5.30
19666;BMP180;9980;51.020;7.772;2023-03-08T06:12:24;95573.00;;;5.30
19666;BMP180;9980;51.020;7.772;2023-03-08T06:14:54;95577.00;;;5.30
19666;BMP180;9980;51.020;7.772;2023-03-08T06:17:24;95558.00;;;5.30
19666;BMP180;9980;51.020;7.772;2023-03-08T06:19:53;95547.00;;;5.30
19666;BMP180;9980;51.020;7.772;2023-03-08T06:22:20;95548.00;;;5.30
19666;BMP180;9980;51.020;7.772;2023-03-08T06:24:48;95558.00;;;5.30
19666;BMP180;9980;51.020;7.772;2023-03-08T06:27:21;95537.00;;;5.30
19666;BMP180;9980;51.020;7.772;2023-03-08T06:29:50;95537.00;;;5.30
19666;BMP180;9980;51.020;7.772;2023-03-08T06:32:18;95531.00;;;5.30
19666;BMP180;9980;51.020;7.772;2023-03-08T06:34:45;95531.00;;;5.30
19666;BMP180;9980;51.020;7.772;2023-03-08T06:37:13;95521.00;;;5.30
19666;BMP180;9980;51.020;7.772;2023-03-08T06:39:40;95527.00;;;5.30
19666;BMP180;9980;51.020;7.772;2023-03-08T06:42:08;95513.00;;;5.30
19666;BMP180;9980;51.020;7.772;2023-03-08T06:44:34;95513.00;;;5.30
19666;BMP180;9980;51.020;7.772;2023-03-08T06:47:02;95511.00;;;5.30
19666;BMP180;9980;51.020;7.772;2023-03-08T06:49:29;95479.00;;;5.30
19666;BMP180;9980;51.020;7.772;2023-03-08T06:51:57;95490.00;;;5.20
19666;BMP180;9980;51.020;7.772;2023-03-08T06:54:25;95491.00;;;5.20
19666;BMP180;9980;51.020;7.772;2023-03-08T06:56:51;95487.00;;;5.20
19666;BMP180;9980;51.020;7.772;2023-03-08T06:59:18;95493.00;;;5.20
19666;BMP180;9980;51.020;7.772;2023-03-08T07:01:45;95476.00;;;5.20
19666;BMP180;9980;51.020;7.772;2023-03-08T07:04:12;95475.00;;;5.20
19666;BMP180;9980;51.020;7.772;2023-03-08T07:06:39;95468.00;;;5.20
19666;BMP180;9980;51.020;7.772;2023-03-08T07:09:06;95461.00;;;5.20
19666;BMP180;9980;51.020;7.772;2023-03-08T07:11:33;95464.00;;;5.20
19666;BMP180;9980;51.020;7.772;2023-03-08T07:14:00;95453.00;;;5.20
19666;BMP180;9980;51.020;7.772;2023-03-08T07:16:27;95434.00;;;5.20
19666;BMP180;9980;51.020;7.772;2023-03-08T07:18:54;95439.00;;;5.20
19666;BMP180;9980;51.020;7.772;2023-03-08T07:21:22;95440.00;;;5.30
19666;BMP180;9980;51.020;7.772;2023-03-08T07:23:51;95421.00;;;5.30
19666;BMP180;9980;51.020;7.772;2023-03-08T07:26:18;95432.00;;;5.30
19666;BMP180;9980;51.020;7.772;2023-03-08T07:28:48;95430.00;;;5.30
19666;BMP180;9980;51.020;7.772;2023-03-08T07:31:17;95418.00;;;5.30
19666;BMP180;9980;51.020;7.772;2023-03-08T07:33:44;95420.00;;;5.30
19666;BMP180;9980;51.020;7.772;2023-03-08T07:36:11;95417.00;;;5.30
19666;BMP180;9980;51.020;7.772;2023-03-08T07:38:38;95407.00;;;5.30
19666;BMP180;9980;51.020;7.772;2023-03-08T07:41:05;95416.00;;;5.40
19666;BMP180;9980;51.020;7.772;2023-03-08T07:43:32;95402.00;;;5.40
19666;BMP180;9980;51.020;7.772;2023-03-08T07:46:07;95404.00;;;5.40
19666;BMP180;9980;51.020;7.772;2023-03-08T07:48:34;95407.00;;;5.40
19666;BMP180;9980;51.020;7.772;2023-03-08T07:51:04;95400.00;;;5.50
19666;BMP180;9980;51.020;7.772;2023-03-08T07:53:33;95400.00;;;5.50
19666;BMP180;9980;51.020;7.772;2023-03-08T07:56:00;95382.00;;;5.60
19666;BMP180;9980;51.020;7.772;2023-03-08T07:58:28;95395.00;;;5.60
19666;BMP180;9980;51.020;7.772;2023-03-08T08:00:55;95388.00;;;5.70
19666;BMP180;9980;51.020;7.772;2023-03-08T08:03:22;95387.00;;;5.70
19666;BMP180;9980;51.020;7.772;2023-03-08T08:05:49;95390.00;;;5.70
19666;BMP180;9980;51.020;7.772;2023-03-08T08:08:16;95376.00;;;5.80
19666;BMP180;9980;51.020;7.772;2023-03-08T08:10:43;95381.00;;;5.80
19666;BMP180;9980;51.020;7.772;2023-03-08T08:13:10;95366.00;;;5.80
19666;BMP180;9980;51.020;7.772;2023-03-08T08:15:37;95365.00;;;5.80
19666;BMP180;9980;51.020;7.772;2023-03-08T08:18:04;95373.00;;;5.90
19666;BMP180;9980;51.020;7.772;2023-03-08T08:20:31;95365.00;;;5.90
19666;BMP180;9980;51.020;7.772;2023-03-08T08:22:58;95357.00;;;5.90
19666;BMP180;9980;51.020;7.772;2023-03-08T08:25:24;95347.00;;;6.00
19666;BMP180;9980;51.020;7.772;2023-03-08T08:27:51;95358.00;;;6.00
19666;BMP180;9980;51.020;7.772;2023-03-08T08:30:19;95358.00;;;6.00
19666;BMP180;9980;51.020;7.772;2023-03-08T08:32:46;95347.00;;;6.00
19666;BMP180;9980;51.020;7.772;2023-03-08T08:35:13;95341.00;;;6.10
19666;BMP180;9980;51.020;7.772;2023-03-08T08:37:40;95348.00;;;6.10
19666;BMP180;9980;51.020;7.772;2023-03-08T08:40:08;95339.00;;;6.10
19666;BMP180;9980;51.020;7.772;2023-03-08T08:42:36;95344.00;;;6.20
19666;BMP180;9980;51.020;7.772;2023-03-08T08:45:04;95323.00;;;6.20
19666;BMP180;9980;51.020;7.772;2023-03-08T08:47:31;95311.00;;;6.20
19666;BMP180;9980;51.020;7.772;2023-03-08T08:49:58;95319.00;;;6.20
19666;BMP180;9980;51.020;7.772;2023-03-08T08:52:25;95313.00;;;6.30
19666;BMP180;9980;51.020;7.772;2023-03-08T08:54:52;95313.00;;;6.30
19666;BMP180;9980;51.020;7.772;2023-03-08T08:57:19;95314.00;;;6.30
19666;BMP180;9980;51.020;7.772;2023-03-08T08:59:46;95309.00;;;6.40
19666;BMP180;9980;51.020;7.772;2023-03-08T09:02:13;95306.00;;;6.40
19666;BMP180;9980;51.020;7.772;2023-03-08T09:04:40;95324.00;;;6.40
19666;BMP180;9980;51.020;7.772;2023-03-08T09:07:07;95291.00;;;6.40
19666;BMP180;9980;51.020;7.772;2023-03-08T09:09:34;95274.00;;;6.50
19666;BMP180;9980;51.020;7.772;2023-03-08T09:12:01;95304.00;;;6.60
19666;BMP180;9980;51.020;7.772;2023-03-08T09:14:28;95297.00;;;6.60
19666;BMP180;9980;51.020;7.772;2023-03-08T09:16:55;95294.00;;;6.70
19666;BMP180;9980;51.020;7.772;2023-03-08T09:19:22;95287.00;;;6.70
19666;BMP180;9980;51.020;7.772;2023-03-08T09:21:49;95291.00;;;6.80
19666;BMP180;9980;51.020;7.772;2023-03-08T09:24:16;95280.00;;;6.80
19666;BMP180;9980;51.020;7.772;2023-03-08T09:26:43;95269.00;;;6.90
19666;BMP180;9980;51.020;7.772;2023-03-08T09:29:10;95274.00;;;7.00
19666;BMP180;9980;51.020;7.772;2023-03-08T09:31:38;95268.00;;;7.10
19666;BMP180;9980;51.020;7.772;2023-03-08T09:34:06;95260.00;;;7.20
19666;BMP180;9980;51.020;7.772;2023-03-08T09:36:36;95247.00;;;7.20
19666;BMP180;9980;51.020;7.772;2023-03-08T09:39:09;95255.00;;;7.30
19666;BMP180;9980;51.020;7.772;2023-03-08T09:47:11;95232.00;;;7.50
19666;BMP180;9980;51.020;7.772;2023-03-08T09:49:43;95233.00;;;7.60
19666;BMP180;9980;51.020;7.772;2023-03-08T09:52:35;95228.00;;;7.70
19666;BMP180;9980;51.020;7.772;2023-03-08T09:55:23;95238.00;;;7.80
19666;BMP180;9980;51.020;7.772;2023-03-08T09:58:38;95241.00;;;7.90
19666;BMP180;9980;51.020;7.772;2023-03-08T10:01:33;95240.00;;;8.00
19666;BMP180;9980;51.020;7.772;2023-03-08T10:07:19;95229.00;;;8.10
19666;BMP180;9980;51.020;7.772;2023-03-08T10:10:35;95227.00;;;8.20
19666;BMP180;9980;51.020;7.772;2023-03-08T10:16:27;95223.00;;;8.30
19666;BMP180;9980;51.020;7.772;2023-03-08T10:19:30;95207.00;;;8.40
19666;BMP180;9980;51.020;7.772;2023-03-08T10:22:34;95202.00;;;8.50
19666;BMP180;9980;51.020;7.772;2023-03-08T10:25:25;95211.00;;;8.60
19666;BMP180;9980;51.020;7.772;2023-03-08T10:27:57;95198.00;;;8.70
19666;BMP180;9980;51.020;7.772;2023-03-08T10:30:39;95201.00;;;8.80
19666;BMP180;9980;51.020;7.772;2023-03-08T10:33:13;95208.00;;;8.90
19666;BMP180;9980;51.020;7.772;2023-03-08T10:36:08;95202.00;;;9.00
19666;BMP180;9980;51.020;7.772;2023-03-08T10:38:59;95206.00;;;9.10
19666;BMP180;9980;51.020;7.772;2023-03-08T10:41:31;95207.00;;;9.20
19666;BMP180;9980;51.020;7.772;2023-03-08T10:44:02;95211.00;;;9.20
19666;BMP180;9980;51.020;7.772;2023-03-08T10:46:29;95214.00;;;9.30
19666;BMP180;9980;51.020;7.772;2023-03-08T10:49:16;95191.00;;;9.30
19666;BMP180;9980;51.020;7.772;2023-03-08T10:51:59;95201.00;;;9.40
19666;BMP180;9980;51.020;7.772;2023-03-08T10:54:27;95187.00;;;9.40
19666;BMP180;9980;51.020;7.772;2023-03-08T10:57:00;95182.00;;;9.40
19666;BMP180;9980;51.020;7.772;2023-03-08T10:59:33;95187.00;;;9.40
19666;BMP180;9980;51.020;7.772;2023-03-08T11:04:57;95181.00;;;9.50
19666;BMP180;9980;51.020;7.772;2023-03-08T11:07:31;95191.00;;;9.50
19666;BMP180;9980;51.020;7.772;2023-03-08T11:12:38;95202.00;;;9.60
19666;BMP180;9980;51.020;7.772;2023-03-08T11:15:18;95202.00;;;9.60
19666;BMP180;9980;51.020;7.772;2023-03-08T11:18:12;95188.00;;;9.60
19666;BMP180;9980;51.020;7.772;2023-03-08T11:20:57;95174.00;;;9.70
19666;BMP180;9980;51.020;7.772;2023-03-08T11:24:37;95192.00;;;9.70
19666;BMP180;9980;51.020;7.772;2023-03-08T11:26:47;95190.00;;;9.80
19666;BMP180;9980;51.020;7.772;2023-03-08T11:32:33;95163.00;;;9.80
19666;BMP180;9980;51.020;7.772;2023-03-08T11:40:49;95151.00;;;9.90
19666;BMP180;9980;51.020;7.772;2023-03-08T11:52:32;95133.00;;;9.90
19666;BMP180;9980;51.020;7.772;2023-03-08T12:00:41;95138.00;;;10.10
19666;BMP180;9980;51.020;7.772;2023-03-08T12:03:20;95132.00;;;10.10
19666;BMP180;9980;51.020;7.772;2023-03-08T12:05:54;95131.00;;;10.10
19666;BMP180;9980;51.020;7.772;2023-03-08T12:11:12;95131.00;;;10.10
19666;BMP180;9980;51.020;7.772;2023-03-08T12:13:57;95119.00;;;10.10
19666;BMP180;9980;51.020;7.772;2023-03-08T12:17:21;95122.00;;;10.00
19666;BMP180;9980;51.020;7.772;2023-03-08T12:19:50;95142.00;;;10.10
19666;BMP180;9980;51.020;7.772;2023-03-08T12:22:56;95134.00;;;10.00
19666;BMP180;9980;51.020;7.772;2023-03-08T12:25:31;95145.00;;;10.00
19666;BMP180;9980;51.020;7.772;2023-03-08T12:28:21;95131.00;;;10.00
19666;BMP180;9980;51.020;7.772;2023-03-08T12:31:32;95129.00;;;10.10
19666;BMP180;9980;51.020;7.772;2023-03-08T12:34:36;95143.00;;;10.10
19666;BMP180;9980;51.020;7.772;2023-03-08T12:37:04;95136.00;;;10.10
19666;BMP180;9980;51.020;7.772;2023-03-08T12:39:34;95119.00;;;10.20
19666;BMP180;9980;51.020;7.772;2023-03-08T12:42:15;95128.00;;;10.20
19666;BMP180;9980;51.020;7.772;2023-03-08T12:44:42;95127.00;;;10.20
19666;BMP180;9980;51.020;7.772;2023-03-08T12:49:43;95106.00;;;10.30
19666;BMP180;9980;51.020;7.772;2023-03-08T12:55:18;95109.00;;;10.30
19666;BMP180;9980;51.020;7.772;2023-03-08T12:57:52;95109.00;;;10.40
19666;BMP180;9980;51.020;7.772;2023-03-08T13:03:01;95112.00;;;10.50
19666;BMP180;9980;51.020;7.772;2023-03-08T13:05:36;95105.00;;;10.60
19666;BMP180;9980;51.020;7.772;2023-03-08T13:13:30;95107.00;;;10.80
19666;BMP180;9980;51.020;7.772;2023-03-08T13:16:38;95088.00;;;10.80
19666;BMP180;9980;51.020;7.772;2023-03-08T13:22:11;95082.00;;;10.80
19666;BMP180;9980;51.020;7.772;2023-03-08T13:24:48;95091.00;;;10.90
19666;BMP180;9980;51.020;7.772;2023-03-08T13:30:57;95098.00;;;10.80
19666;BMP180;9980;51.020;7.772;2023-03-08T13:33:36;95087.00;;;10.80
19666;BMP180;9980;51.020;7.772;2023-03-08T13:39:21;95088.00;;;10.80
19666;BMP180;9980;51.020;7.772;2023-03-08T13:41:49;95070.00;;;10.70
19666;BMP180;9980;51.020;7.772;2023-03-08T13:44:22;95071.00;;;10.70
19666;BMP180;9980;51.020;7.772;2023-03-08T13:46:57;95068.00;;;10.70
19666;BMP180;9980;51.020;7.772;2023-03-08T13:49:34;95070.00;;;10.70
19666;BMP180;9980;51.020;7.772;2023-03-08T13:52:15;95067.00;;;10.70
19666;BMP180;9980;51.020;7.772;2023-03-08T13:54:49;95079.00;;;10.70
19666;BMP180;9980;51.020;7.772;2023-03-08T13:57:27;95081.00;;;10.70
19666;BMP180;9980;51.020;7.772;2023-03-08T14:00:00;95080.00;;;10.60
19666;BMP180;9980;51.020;7.772;2023-03-08T14:02:31;95067.00;;;10.60
19666;BMP180;9980;51.020;7.772;2023-03-08T14:04:58;95073.00;;;10.60
19666;BMP180;9980;51.020;7.772;2023-03-08T14:07:30;95053.00;;;10.50
19666;BMP180;9980;51.020;7.772;2023-03-08T14:09:57;95060.00;;;10.50
19666;BMP180;9980;51.020;7.772;2023-03-08T14:12:30;95063.00;;;10.50
19666;BMP180;9980;51.020;7.772;2023-03-08T14:15:04;95044.00;;;10.50
19666;BMP180;9980;51.020;7.772;2023-03-08T14:17:34;95050.00;;;10.50
19666;BMP180;9980;51.020;7.772;2023-03-08T14:20:16;95031.00;;;10.50
19666;BMP180;9980;51.020;7.772;2023-03-08T14:22:50;95048.00;;;10.50
19666;BMP180;9980;51.020;7.772;2023-03-08T14:25:31;95057.00;;;10.50
19666;BMP180;9980;51.020;7.772;2023-03-08T14:27:58;95051.00;;;10.60
19666;BMP180;9980;51.020;7.772;2023-03-08T14:30:29;95043.00;;;10.50
19666;BMP180;9980;51.020;7.772;2023-03-08T14:33:17;95056.00;;;10.50
19666;BMP180;9980;51.020;7.772;2023-03-08T14:35:54;95052.00;;;10.50
19666;BMP180;9980;51.020;7.772;2023-03-08T14:38:30;95057.00;;;10.50
19666;BMP180;9980;51.020;7.772;2023-03-08T14:41:03;95053.00;;;10.40
19666;BMP180;9980;51.020;7.772;2023-03-08T14:43:32;95039.00;;;10.40
19666;BMP180;9980;51.020;7.772;2023-03-08T14:46:06;95038.00;;;10.40
19666;BMP180;9980;51.020;7.772;2023-03-08T14:48:37;95029.00;;;10.40
19666;BMP180;9980;51.020;7.772;2023-03-08T14:51:25;95027.00;;;10.30
19666;BMP180;9980;51.020;7.772;2023-03-08T14:54:17;95028.00;;;10.30
19666;BMP180;9980;51.020;7.772;2023-03-08T14:56:45;95034.00;;;10.30
19666;BMP180;9980;51.020;7.772;2023-03-08T14:59:12;95013.00;;;10.20
19666;BMP180;9980;51.020;7.772;2023-03-08T15:01:52;95007.00;;;10.20
19666;BMP180;9980;51.020;7.772;2023-03-08T15:04:22;95005.00;;;10.20
19666;BMP180;9980;51.020;7.772;2023-03-08T15:06:52;95003.00;;;10.10
19666;BMP180;9980;51.020;7.772;2023-03-08T15:09:21;95004.00;;;10.10
19666;BMP180;9980;51.020;7.772;2023-03-08T15:11:51;95004.00;;;10.00
19666;BMP180;9980;51.020;7.772;2023-03-08T15:14:19;94999.00;;;10.00
19666;BMP180;9980;51.020;7.772;2023-03-08T15:16:46;95003.00;;;10.00
19666;BMP180;9980;51.020;7.772;2023-03-08T15:19:13;94998.00;;;9.90
19666;BMP180;9980;51.020;7.772;2023-03-08T15:21:40;94995.00;;;9.90
19666;BMP180;9980;51.020;7.772;2023-03-08T15:24:18;95008.00;;;9.80
19666;BMP180;9980;51.020;7.772;2023-03-08T15:26:45;95025.00;;;9.80
19666;BMP180;9980;51.020;7.772;2023-03-08T15:29:31;95017.00;;;9.70
19666;BMP180;9980;51.020;7.772;2023-03-08T15:31:59;95025.00;;;9.70
19666;BMP180;9980;51.020;7.772;2023-03-08T15:34:26;95017.00;;;9.60
19666;BMP180;9980;51.020;7.772;2023-03-08T15:36:54;95019.00;;;9.60
19666;BMP180;9980;51.020;7.772;2023-03-08T15:39:22;95014.00;;;9.60
19666;BMP180;9980;51.020;7.772;2023-03-08T15:41:49;95012.00;;;9.50
19666;BMP180;9980;51.020;7.772;2023-03-08T15:44:15;95012.00;;;9.50
19666;BMP180;9980;51.020;7.772;2023-03-08T15:46:42;95000.00;;;9.50
19666;BMP180;9980;51.020;7.772;2023-03-08T15:49:09;95014.00;;;9.40
19666;BMP180;9980;51.020;7.772;2023-03-08T15:51:36;95005.00;;;9.40
19666;BMP180;9980;51.020;7.772;2023-03-08T15:54:05;94998.00;;;9.30
19666;BMP180;9980;51.020;7.772;2023-03-08T15:56:33;94998.00;;;9.30
19666;BMP180;9980;51.020;7.772;2023-03-08T15:59:00;94987.00;;;9.30
19666;BMP180;9980;51.020;7.772;2023-03-08T16:01:26;94992.00;;;9.20
19666;BMP180;9980;51.020;7.772;2023-03-08T16:03:55;94996.00;;;9.20
19666;BMP180;9980;51.020;7.772;2023-03-08T16:06:23;94987.00;;;9.20
19666;BMP180;9980;51.020;7.772;2023-03-08T16:08:50;94993.00;;;9.20